Time;durP1;ratioP1;P1;durP2;ratioP2;P2;SDS_P1;SDS_P2;PMS_P1;PMS_P2;Temp;Humidity;BMP_temperature;BMP_pressure;BME280_temperature;BME280_humidity;BME280_pressure;Samples;Min_cycle;Max_cycle;Signal;HPM_P1;HPM_P2
2023/01/24 00:00:28;;;;;;;;;;;;;;;15.13;50.64;104199.53;2113191;27;19930;-55
2023/01/24 00:01:29;;;;;;;;;;;;;;;15.13;50.89;104198.75;2105103;28;19990;-54
2023/01/24 00:02:32;;;;;;;;;;;;;;;15.12;51.07;104189.75;2111551;28;19927;-53
2023/01/24 00:03:34;;;;;;;;;;;;;;;15.13;50.85;104202.25;2113083;28;20299;-51
2023/01/24 00:04:36;;;;;;;;;;;;;;;15.12;50.88;104197.09;2113084;28;20794;-53
2023/01/24 00:05:38;;;;;;;;;;;;;;;15.13;50.94;104199.53;2112791;27;20421;-54
2023/01/24 00:06:40;;;;;;;;;;;;;;;15.12;50.94;104197.09;2119378;27;19927;-54
2023/01/24 00:07:43;;;;;;;;;;;;;;;15.11;50.89;104188.13;2115695;27;19923;-54
2023/01/24 00:08:46;;;;;;;;;;;;;;;15.13;50.85;104190.56;2114317;27;19923;-52
2023/01/24 00:09:48;;;;;;;;;;;;;;;15.11;50.82;104185.41;2117749;27;20405;-53
2023/01/24 00:10:58;;;;;;;;;;;;;;;15.11;50.82;104179.94;2114252;27;19924;-54
2023/01/24 00:11:59;;;;;;;;;;;;;;;15.11;50.85;104182.69;2120359;27;19924;-50
2023/01/24 00:13:02;;;;;;;;;;;;;;;15.11;51.06;104177.22;2119735;27;19928;-52
2023/01/24 00:14:04;;;;;;;;;;;;;;;15.11;50.98;104181.88;2114962;27;19927;-52
2023/01/24 00:15:06;;;;;;;;;;;;;;;15.11;51.10;104182.69;2116775;27;20155;-52
2023/01/24 00:16:11;;;;;;;;;;;;;;;15.10;50.77;104181.06;2108372;28;19939;-53
2023/01/24 00:17:12;;;;;;;;;;;;;;;15.10;50.96;104181.06;2105709;28;19935;-52
2023/01/24 00:18:15;;;;;;;;;;;;;;;15.10;50.97;104178.34;2113475;28;19928;-53
2023/01/24 00:19:16;;;;;;;;;;;;;;;15.10;50.86;104191.94;2117212;27;20401;-52
2023/01/24 00:20:19;;;;;;;;;;;;;;;15.10;50.71;104178.34;2119512;27;20417;-53
2023/01/24 00:21:23;;;;;;;;;;;;;;;15.10;50.80;104170.19;2107121;28;19928;-54
2023/01/24 00:22:25;;;;;;;;;;;;;;;15.11;50.70;104174.50;2103972;28;19938;-53
2023/01/24 00:23:29;;;;;;;;;;;;;;;15.10;50.86;104178.34;2105184;28;19932;-52
2023/01/24 00:24:32;;;;;;;;;;;;;;;15.09;50.87;104175.91;2113203;27;19923;-53
2023/01/24 00:25:35;;;;;;;;;;;;;;;15.09;50.82;104174.00;2112364;28;20440;-52
2023/01/24 00:26:37;;;;;;;;;;;;;;;15.09;50.72;104179.44;2113874;28;19931;-53
2023/01/24 00:27:39;;;;;;;;;;;;;;;15.09;50.98;104182.19;2113344;28;19934;-52
2023/01/24 00:28:41;;;;;;;;;;;;;;;15.10;50.92;104177.53;2113557;28;19928;-51
2023/01/24 00:29:43;;;;;;;;;;;;;;;15.09;51.04;104179.44;2118407;27;19924;-52
2023/01/24 00:30:45;;;;;;;;;;;;;;;15.08;50.87;104177.81;2117527;28;19931;-51
2023/01/24 00:31:48;;;;;;;;;;;;;;;15.09;50.71;104174.00;2120584;27;19971;-52
2023/01/24 00:32:49;;;;;;;;;;;;;;;15.09;50.78;104179.44;2104023;28;19924;-52
2023/01/24 00:33:52;;;;;;;;;;;;;;;15.08;51.03;104177.81;2104842;28;21351;-50
2023/01/24 00:34:53;;;;;;;;;;;;;;;15.08;50.99;104180.53;2113070;28;19928;-51
2023/01/24 00:35:58;;;;;;;;;;;;;;;15.08;50.88;104175.09;2113171;28;20012;-52
2023/01/24 00:37:00;;;;;;;;;;;;;;;15.09;50.81;104182.19;2113040;28;19931;-52
2023/01/24 00:38:02;;;;;;;;;;;;;;;15.07;50.82;104170.75;2121761;27;19970;-52
2023/01/24 00:39:05;;;;;;;;;;;;;;;15.08;50.81;104177.03;2113047;28;20286;-52
2023/01/24 00:40:08;;;;;;;;;;;;;;;15.07;50.94;104176.19;2115655;28;19939;-52
2023/01/24 00:41:10;;;;;;;;;;;;;;;15.07;50.80;104176.19;2113280;28;19924;-53
2023/01/24 00:42:13;;;;;;;;;;;;;;;15.07;50.82;104170.75;2104052;28;19928;-52
2023/01/24 00:43:14;;;;;;;;;;;;;;;15.08;50.82;104168.84;2111276;28;19928;-52
2023/01/24 00:44:17;;;;;;;;;;;;;;;15.08;50.83;104177.81;2118350;28;19934;-53
2023/01/24 00:45:19;;;;;;;;;;;;;;;15.07;50.80;104176.19;2111731;28;19927;-53
2023/01/24 00:46:22;;;;;;;;;;;;;;;15.08;50.87;104174.31;2110829;28;19935;-54
2023/01/24 00:47:24;;;;;;;;;;;;;;;15.08;50.86;104169.66;2113221;28;20324;-52
2023/01/24 00:48:27;;;;;;;;;;;;;;;15.06;50.86;104163.72;2114028;28;19994;-53
2023/01/24 00:49:28;;;;;;;;;;;;;;;15.07;51.03;104173.47;2117709;28;19928;-52
2023/01/24 00:50:31;;;;;;;;;;;;;;;15.07;50.65;104173.47;2114588;28;19954;-53
2023/01/24 00:51:33;;;;;;;;;;;;;;;15.08;50.71;104171.59;2114416;28;19943;-52
2023/01/24 00:52:35;;;;;;;;;;;;;;;15.07;50.99;104172.66;2121841;28;20664;-52
2023/01/24 00:53:38;;;;;;;;;;;;;;;15.06;50.71;104169.16;2105604;28;19999;-51
2023/01/24 00:54:41;;;;;;;;;;;;;;;15.06;50.76;104169.16;2106761;28;19932;-54
2023/01/24 00:55:43;;;;;;;;;;;;;;;15.06;50.96;104171.88;2113158;28;19958;-53
2023/01/24 00:56:47;;;;;;;;;;;;;;;15.05;50.86;104174.88;2109992;28;19924;-53
2023/01/24 00:57:49;;;;;;;;;;;;;;;15.05;50.74;104170.22;2112408;28;19924;-53
2023/01/24 00:58:52;;;;;;;;;;;;;;;15.05;50.95;104175.66;2115161;28;19927;-52
2023/01/24 00:59:54;;;;;;;;;;;;;;;15.06;50.84;104173.78;2108490;28;20001;-49
2023/01/24 01:00:58;;;;;;;;;;;;;;;15.05;51.04;104178.41;2111384;28;19924;-54
2023/01/24 01:02:00;;;;;;;;;;;;;;;15.06;51.05;104184.66;2113318;28;19969;-54
2023/01/24 01:03:02;;;;;;;;;;;;;;;15.05;50.71;104194.72;2114310;28;19943;-54
2023/01/24 01:04:04;;;;;;;;;;;;;;;15.05;50.86;104188.50;2118116;28;20278;-54
2023/01/24 01:05:07;;;;;;;;;;;;;;;15.06;50.84;104192.81;2113061;28;20391;-54
2023/01/24 01:06:11;;;;;;;;;;;;;;;15.05;50.64;104183.84;2114543;28;19935;-53
2023/01/24 01:07:14;;;;;;;;;;;;;;;15.04;50.79;104193.13;2113568;28;19935;-54
2023/01/24 01:08:16;;;;;;;;;;;;;;;15.05;50.95;104192.00;2119355;28;19923;-52
2023/01/24 01:09:18;;;;;;;;;;;;;;;15.05;50.75;104194.72;2115964;28;20843;-51
2023/01/24 01:10:21;;;;;;;;;;;;;;;15.05;50.93;104191.22;2113244;28;19985;-52
2023/01/24 01:11:25;;;;;;;;;;;;;;;15.04;50.98;104193.13;2113145;28;19934;-52
2023/01/24 01:12:27;;;;;;;;;;;;;;;15.03;50.69;104175.19;2115006;28;19931;-53
2023/01/24 01:13:29;;;;;;;;;;;;;;;15.05;50.54;104188.50;2110785;28;19927;-52
2023/01/24 01:14:32;;;;;;;;;;;;;;;15.04;51.06;104193.13;2100581;28;19935;-51
2023/01/24 01:15:34;;;;;;;;;;;;;;;15.03;50.85;104186.06;2106129;28;19928;-51
2023/01/24 01:16:37;;;;;;;;;;;;;;;15.03;50.87;104184.13;2104210;28;19928;-54
2023/01/24 01:17:40;;;;;;;;;;;;;;;15.03;50.87;104186.06;2107882;28;20387;-51
2023/01/24 01:18:42;;;;;;;;;;;;;;;15.04;50.73;104187.66;2108797;28;19927;-53
2023/01/24 01:19:45;;;;;;;;;;;;;;;15.03;50.91;104184.13;2107887;28;20517;-52
2023/01/24 01:20:50;;;;;;;;;;;;;;;15.03;50.71;104186.06;2115675;28;19924;-53
2023/01/24 01:21:53;;;;;;;;;;;;;;;15.04;51.03;104187.66;2121909;28;19927;-52
2023/01/24 01:22:55;;;;;;;;;;;;;;;15.02;51.00;104181.69;2120260;28;19927;-51
2023/01/24 01:23:58;;;;;;;;;;;;;;;15.03;50.91;104184.13;2118227;28;20922;-52
2023/01/24 01:25:00;;;;;;;;;;;;;;;15.03;50.88;104184.13;2113348;28;20356;-52
2023/01/24 01:26:05;;;;;;;;;;;;;;;15.03;50.92;104180.63;2113198;28;19935;-53
2023/01/24 01:27:08;;;;;;;;;;;;;;;15.03;50.94;104183.34;2113051;28;19932;-52
2023/01/24 01:28:10;;;;;;;;;;;;;;;15.02;50.87;104178.97;2113159;28;19928;-52
2023/01/24 01:29:12;;;;;;;;;;;;;;;15.02;50.91;104181.69;2112750;28;19942;-52
2023/01/24 01:30:15;;;;;;;;;;;;;;;15.02;50.89;104189.88;2113234;28;19939;-52
2023/01/24 01:31:17;;;;;;;;;;;;;;;15.02;50.93;104179.78;2104342;28;19932;-52
2023/01/24 01:32:20;;;;;;;;;;;;;;;15.03;51.12;104175.19;2108309;28;19946;-52
2023/01/24 01:33:22;;;;;;;;;;;;;;;15.02;50.74;104179.78;2109277;28;19935;-51
2023/01/24 01:34:25;;;;;;;;;;;;;;;15.03;51.07;104186.06;2107615;28;19935;-52
2023/01/24 01:35:27;;;;;;;;;;;;;;;15.02;50.87;104187.13;2105365;28;19925;-51
2023/01/24 01:36:29;;;;;;;;;;;;;;;15.02;50.99;104184.41;2112982;28;19932;-51
2023/01/24 01:37:34;;;;;;;;;;;;;;;15.02;50.95;104178.97;2115211;27;19924;-52
2023/01/24 01:38:37;;;;;;;;;;;;;;;15.02;50.95;104173.53;2114836;27;19927;-53
2023/01/24 01:39:38;;;;;;;;;;;;;;;15.02;50.71;104179.78;2115178;27;19996;-54
2023/01/24 01:40:41;;;;;;;;;;;;;;;15.01;50.96;104177.38;2106318;28;19928;-54
2023/01/24 01:41:45;;;;;;;;;;;;;;;15.01;50.77;104166.47;2101380;28;19932;-53
2023/01/24 01:42:51;;;;;;;;;;;;;;;15.01;50.96;104180.88;2105740;28;19938;-53
2023/01/24 01:45:35;;;;;;;;;;;;;;;15.00;50.74;104176.53;2115387;27;19932;-52
2023/01/24 01:46:40;;;;;;;;;;;;;;;15.01;50.78;104180.09;2114875;27;19938;-52
2023/01/24 01:47:43;;;;;;;;;;;;;;;15.01;50.97;104174.66;2114537;28;19935;-54
2023/01/24 01:48:46;;;;;;;;;;;;;;;15.00;51.07;104182.00;2114897;27;19998;-52
2023/01/24 01:49:53;;;;;;;;;;;;;;;15.00;50.95;104179.28;2117593;27;19947;-55
2023/01/24 01:50:58;;;;;;;;;;;;;;;15.01;51.12;104174.66;2114829;28;20299;-54
2023/01/24 01:52:03;;;;;;;;;;;;;;;15.01;50.98;104182.81;2114506;27;19924;-53
2023/01/24 01:53:05;;;;;;;;;;;;;;;15.01;50.91;104180.09;2115043;27;19975;-51
2023/01/24 01:54:10;;;;;;;;;;;;;;;15.00;50.98;104179.28;2114522;27;19928;-51
2023/01/24 01:55:13;;;;;;;;;;;;;;;15.00;50.81;104175.72;2115417;27;19927;-51
2023/01/24 01:56:20;;;;;;;;;;;;;;;15.00;50.77;104170.28;2116869;27;19931;-50
2023/01/24 01:57:26;;;;;;;;;;;;;;;15.00;50.96;104171.09;2115297;27;20048;-52
2023/01/24 01:58:28;;;;;;;;;;;;;;;15.00;51.09;104175.72;2098691;28;19928;-51
2023/01/24 01:59:32;;;;;;;;;;;;;;;14.99;51.00;104180.38;2101028;28;19963;-52
2023/01/24 02:00:35;;;;;;;;;;;;;;;15.00;50.83;104178.44;2115845;27;19927;-51
2023/01/24 02:01:37;;;;;;;;;;;;;;;14.99;51.00;104180.38;2115747;27;20486;-53
2023/01/24 02:02:41;;;;;;;;;;;;;;;15.00;50.78;104170.28;2116961;27;19932;-53
2023/01/24 02:03:47;;;;;;;;;;;;;;;15.00;50.81;104167.56;2114771;27;19928;-53
2023/01/24 02:04:52;;;;;;;;;;;;;;;15.00;51.08;104181.16;2116104;27;20315;-53
2023/01/24 02:05:54;;;;;;;;;;;;;;;15.00;51.02;104176.53;2114228;27;19928;-52
2023/01/24 02:07:00;;;;;;;;;;;;;;;15.00;50.99;104175.72;2114539;28;20272;-51
2023/01/24 02:08:06;;;;;;;;;;;;;;;14.99;51.00;104180.38;2116823;27;19932;-51
2023/01/24 02:09:10;;;;;;;;;;;;;;;14.99;50.73;104174.13;2116673;27;20375;-52
2023/01/24 02:10:12;;;;;;;;;;;;;;;15.00;50.82;104175.72;2113591;27;19927;-53
2023/01/24 02:12:38;;;;;;;;;;;;;;;14.99;50.79;104182.28;2115193;27;20412;-52
2023/01/24 02:13:43;;;;;;;;;;;;;;;14.99;50.99;104163.22;2119618;27;19931;-52
2023/01/24 02:16:06;;;;;;;;;;;;;;;14.99;50.91;104163.22;2117185;27;19931;-54
2023/01/24 02:17:09;;;;;;;;;;;;;;;14.99;51.00;104169.50;2115324;27;19928;-52
2023/01/24 02:18:10;;;;;;;;;;;;;;;14.99;50.87;104174.94;2117234;27;19931;-54
2023/01/24 02:19:18;;;;;;;;;;;;;;;14.99;50.92;104168.66;2114220;27;19928;-54
2023/01/24 02:20:29;;;;;;;;;;;;;;;14.98;50.84;104167.06;2106453;28;20315;-52
2023/01/24 02:21:31;;;;;;;;;;;;;;;14.98;51.04;104173.28;2113651;28;19924;-52
2023/01/24 02:22:37;;;;;;;;;;;;;;;14.98;50.92;104172.50;2118421;27;19943;-52
2023/01/24 02:23:43;;;;;;;;;;;;;;;14.98;51.05;104161.63;2114334;27;19928;-53
2023/01/24 02:24:53;;;;;;;;;;;;;;;14.97;50.84;104166.25;2114232;27;19927;-53
2023/01/24 02:26:03;;;;;;;;;;;;;;;14.98;50.98;104176.00;2117181;27;20306;-52
2023/01/24 02:27:05;;;;;;;;;;;;;;;14.98;51.05;104167.06;2117181;27;20409;-53
2023/01/24 02:28:08;;;;;;;;;;;;;;;14.98;50.85;104167.06;2104817;28;19939;-53
2023/01/24 02:29:13;;;;;;;;;;;;;;;14.98;51.14;104164.34;2105267;28;19961;-50
2023/01/24 02:30:16;;;;;;;;;;;;;;;14.98;50.99;104156.19;2112141;28;20014;-50
2023/01/24 02:31:18;;;;;;;;;;;;;;;14.97;50.93;104163.53;2100392;28;19928;-51
2023/01/24 02:32:20;;;;;;;;;;;;;;;14.97;50.78;104166.25;2104752;28;20067;-52
2023/01/24 02:33:23;;;;;;;;;;;;;;;14.98;50.88;104167.06;2101406;28;19936;-52
2023/01/24 02:34:25;;;;;;;;;;;;;;;14.98;51.12;104164.34;2113167;28;19997;-52
2023/01/24 02:35:29;;;;;;;;;;;;;;;14.97;50.95;104160.81;2109098;28;19936;-53
2023/01/24 02:36:32;;;;;;;;;;;;;;;14.97;50.74;104159.97;2109340;28;20019;-53
2023/01/24 02:37:36;;;;;;;;;;;;;;;14.97;51.02;104160.81;2108028;28;19928;-53
2023/01/24 02:38:39;;;;;;;;;;;;;;;14.97;50.78;104160.81;2104420;28;19923;-52
2023/01/24 02:39:45;;;;;;;;;;;;;;;14.97;50.74;104149.91;2110426;28;20338;-52
2023/01/24 02:40:49;;;;;;;;;;;;;;;14.97;50.90;104154.53;2113772;28;19981;-52
2023/01/24 02:41:55;;;;;;;;;;;;;;;14.98;51.00;104158.91;2105022;28;19928;-52
2023/01/24 02:43:00;;;;;;;;;;;;;;;14.96;51.00;104150.22;2105610;28;19964;-50
2023/01/24 02:44:06;;;;;;;;;;;;;;;14.97;51.01;104154.53;2106438;28;20448;-51
2023/01/24 02:45:09;;;;;;;;;;;;;;;14.96;51.00;104147.50;2105866;28;19931;-53
2023/01/24 02:46:12;;;;;;;;;;;;;;;14.97;50.78;104146.38;2111397;28;19935;-52
2023/01/24 02:47:14;;;;;;;;;;;;;;;14.97;51.08;104152.63;2101894;28;20870;-53
2023/01/24 02:48:17;;;;;;;;;;;;;;;14.96;50.71;104151.03;2099545;28;20438;-52
2023/01/24 02:49:18;;;;;;;;;;;;;;;14.97;50.89;104149.09;2097669;28;20343;-51
2023/01/24 02:50:22;;;;;;;;;;;;;;;14.96;50.90;104148.31;2112760;28;19928;-53
2023/01/24 02:54:04;;;;;;;;;;;;;;;14.96;51.04;104148.31;2110853;28;19934;-54
2023/01/24 02:55:07;;;;;;;;;;;;;;;14.96;50.80;104155.66;2113625;27;19927;-51
2023/01/24 02:58:55;;;;;;;;;;;;;;;14.95;51.08;104145.88;2103671;28;19928;-52
2023/01/24 02:59:57;;;;;;;;;;;;;;;14.96;50.89;104150.22;2103802;28;19928;-53
2023/01/24 03:01:01;;;;;;;;;;;;;;;14.96;50.89;104150.22;2096669;28;19935;-53
2023/01/24 03:02:02;;;;;;;;;;;;;;;14.96;51.11;104155.66;2104374;28;19977;-52
2023/01/24 03:03:05;;;;;;;;;;;;;;;14.95;51.02;104151.31;2109844;28;20444;-53
2023/01/24 03:04:09;;;;;;;;;;;;;;;14.95;50.76;104152.09;2110675;28;19928;-54
2023/01/24 03:05:12;;;;;;;;;;;;;;;14.94;50.73;104150.50;2097347;28;19940;-52
2023/01/24 03:06:14;;;;;;;;;;;;;;;14.95;50.94;104151.31;2113195;28;19927;-53
2023/01/24 03:07:17;;;;;;;;;;;;;;;14.95;50.74;104152.09;2113570;28;20387;-51
2023/01/24 03:08:25;;;;;;;;;;;;;;;14.94;51.02;104153.22;2107104;28;19928;-52
2023/01/24 03:09:34;;;;;;;;;;;;;;;14.95;50.88;104162.19;2101878;28;19928;-52
2023/01/24 03:10:37;;;;;;;;;;;;;;;14.94;50.88;104161.38;2105163;28;19928;-54
2023/01/24 03:11:39;;;;;;;;;;;;;;;14.95;50.78;104167.66;2113308;28;19964;-53
2023/01/24 03:34:33;;;;;;;;;;;;;;;14.94;50.85;104157.84;2105623;28;20318;-51
2023/01/24 03:35:35;;;;;;;;;;;;;;;14.93;51.03;104165.22;2104536;28;20057;-54
2023/01/24 03:36:37;;;;;;;;;;;;;;;14.93;51.08;104161.66;2111988;28;19934;-54
2023/01/24 03:40:21;;;;;;;;;;;;;;;14.93;50.93;104170.66;2113332;27;19928;-53
2023/01/24 03:41:24;;;;;;;;;;;;;;;14.93;50.88;104172.56;2120830;27;20267;-55
2023/01/24 03:42:26;;;;;;;;;;;;;;;14.92;50.90;104163.56;2113775;27;19967;-55
2023/01/24 03:43:33;;;;;;;;;;;;;;;14.93;50.95;104172.56;2108351;28;19924;-54
2023/01/24 03:44:36;;;;;;;;;;;;;;;14.93;50.97;104158.94;2104684;28;19928;-52
2023/01/24 03:45:39;;;;;;;;;;;;;;;14.92;51.15;104170.94;2105683;28;20311;-55
2023/01/24 03:46:48;;;;;;;;;;;;;;;14.92;51.02;104168.22;2105473;28;19947;-55
2023/01/24 03:48:04;;;;;;;;;;;;;;;14.93;50.72;104175.28;2093145;28;20007;-55
2023/01/24 03:49:09;;;;;;;;;;;;;;;14.91;50.85;104172.84;2100116;28;20019;-56
2023/01/24 03:52:53;;;;;;;;;;;;;;;14.92;50.86;104179.09;2113368;28;19928;-55
2023/01/24 03:53:56;;;;;;;;;;;;;;;14.92;50.75;104173.66;2104896;28;19975;-55
2023/01/24 03:55:02;;;;;;;;;;;;;;;14.92;51.12;104173.66;2098777;28;20436;-54
2023/01/24 03:56:06;;;;;;;;;;;;;;;14.93;51.04;104180.72;2106603;27;19977;-55
2023/01/24 03:57:15;;;;;;;;;;;;;;;14.92;50.91;104184.56;2111733;28;20361;-55
2023/01/24 03:58:17;;;;;;;;;;;;;;;14.91;50.86;104177.47;2108381;28;19947;-54
2023/01/24 03:59:20;;;;;;;;;;;;;;;14.92;50.73;104176.38;2113577;28;19928;-55
2023/01/24 04:00:23;;;;;;;;;;;;;;;14.92;51.07;104184.56;2107884;28;19935;-53
2023/01/24 04:01:31;;;;;;;;;;;;;;;14.92;50.86;104173.66;2104490;28;19928;-55
2023/01/24 04:02:39;;;;;;;;;;;;;;;14.91;50.87;104182.91;2102324;28;20481;-55
2023/01/24 04:03:42;;;;;;;;;;;;;;;14.92;50.93;104184.56;2100088;28;20338;-55
2023/01/24 04:06:07;;;;;;;;;;;;;;;14.91;51.10;104177.47;2109128;28;19927;-55
2023/01/24 04:07:09;;;;;;;;;;;;;;;14.91;50.82;104185.63;2104416;28;19928;-55
2023/01/24 04:08:27;;;;;;;;;;;;;;;14.92;50.91;104181.81;2108259;28;19939;-53
2023/01/24 04:09:29;;;;;;;;;;;;;;;14.92;51.10;104184.56;2107126;28;19924;-55
2023/01/24 04:10:32;;;;;;;;;;;;;;;14.92;50.95;104184.56;2101610;28;19975;-55
2023/01/24 04:11:33;;;;;;;;;;;;;;;14.91;51.02;104177.47;2104062;28;19928;-54
2023/01/24 04:12:44;;;;;;;;;;;;;;;14.91;50.94;104177.47;2098131;28;20521;-55
2023/01/24 04:13:45;;;;;;;;;;;;;;;14.90;50.92;104176.66;2096553;28;19928;-51
2023/01/24 04:14:48;;;;;;;;;;;;;;;14.91;51.00;104177.47;2112086;28;19977;-55
2023/01/24 04:15:51;;;;;;;;;;;;;;;14.91;50.91;104177.47;2116384;27;20391;-54
2023/01/24 04:17:19;;;;;;;;;;;;;;;14.90;51.19;104181.31;2108656;28;19959;-54
2023/01/24 04:18:26;;;;;;;;;;;;;;;14.92;50.88;104179.09;2102354;28;19971;-53
2023/01/24 04:19:27;;;;;;;;;;;;;;;14.90;51.14;104178.56;2101132;28;20014;-53
2023/01/24 04:20:34;;;;;;;;;;;;;;;14.91;50.79;104185.63;2106974;28;19934;-54
2023/01/24 04:21:37;;;;;;;;;;;;;;;14.89;51.10;104180.47;2112697;28;20018;-54
2023/01/24 04:22:40;;;;;;;;;;;;;;;14.91;50.88;104185.63;2096460;28;19929;-55
2023/01/24 04:23:42;;;;;;;;;;;;;;;14.90;50.96;104182.09;2105593;28;20450;-54
2023/01/24 04:24:46;;;;;;;;;;;;;;;14.90;50.87;104175.84;2107075;28;19936;-56
2023/01/24 04:25:54;;;;;;;;;;;;;;;14.91;51.05;104188.34;2107395;28;19939;-52
2023/01/24 04:26:57;;;;;;;;;;;;;;;14.90;50.70;104181.31;2108863;28;19971;-54
2023/01/24 04:28:04;;;;;;;;;;;;;;;14.89;51.16;104180.47;2096931;28;19929;-55
2023/01/24 04:29:08;;;;;;;;;;;;;;;14.90;51.09;104182.09;2110000;28;19946;-54
2023/01/24 04:30:11;;;;;;;;;;;;;;;14.90;51.10;104181.31;2101595;28;19966;-53
2023/01/24 04:31:17;;;;;;;;;;;;;;;14.90;50.95;104181.31;2098353;28;20376;-54
2023/01/24 04:32:37;;;;;;;;;;;;;;;14.91;51.21;104182.91;2107764;28;20400;-54
2023/01/24 04:33:46;;;;;;;;;;;;;;;14.89;51.02;104191.34;2104948;28;19950;-54
2023/01/24 04:34:48;;;;;;;;;;;;;;;14.90;50.75;104186.75;2102351;28;19928;-55
2023/01/24 04:35:59;;;;;;;;;;;;;;;14.89;51.05;104185.09;2104459;28;19928;-53
2023/01/24 04:37:01;;;;;;;;;;;;;;;14.90;51.02;104194.91;2100652;28;19968;-55
2023/01/24 04:38:03;;;;;;;;;;;;;;;14.89;50.77;104187.81;2104057;28;19932;-55
2023/01/24 04:39:16;;;;;;;;;;;;;;;14.89;51.33;104185.09;2098236;28;19932;-54
2023/01/24 04:40:29;;;;;;;;;;;;;;;14.89;51.12;104185.91;2099774;28;19964;-54
2023/01/24 04:41:31;;;;;;;;;;;;;;;14.89;50.89;104187.81;2111214;28;19924;-53
2023/01/24 04:42:33;;;;;;;;;;;;;;;14.89;51.02;104185.09;2104595;28;19932;-53
2023/01/24 04:43:36;;;;;;;;;;;;;;;14.89;51.00;104191.34;2093750;28;19929;-53
2023/01/24 04:44:39;;;;;;;;;;;;;;;14.88;50.85;104178.88;2103499;28;20348;-55
2023/01/24 04:45:44;;;;;;;;;;;;;;;14.89;50.93;104185.09;2103028;28;19963;-53
2023/01/24 04:46:50;;;;;;;;;;;;;;;14.89;51.11;104185.09;2099964;28;19924;-54
2023/01/24 04:47:53;;;;;;;;;;;;;;;14.89;50.99;104185.09;2110328;28;19943;-54
2023/01/24 04:48:56;;;;;;;;;;;;;;;14.88;51.05;104180.78;2111083;28;20014;-53
2023/01/24 04:50:17;;;;;;;;;;;;;;;14.89;50.88;104185.09;2106326;28;19994;-55
2023/01/24 04:51:19;;;;;;;;;;;;;;;14.88;50.85;104176.16;2103478;28;19928;-55
2023/01/24 04:52:23;;;;;;;;;;;;;;;14.89;50.83;104174.22;2098032;28;19928;-55
2023/01/24 04:53:40;;;;;;;;;;;;;;;14.88;50.85;104178.88;2105771;28;19979;-53
2023/01/24 04:54:42;;;;;;;;;;;;;;;14.88;50.89;104176.16;2111050;28;19935;-54
2023/01/24 04:55:44;;;;;;;;;;;;;;;14.89;50.83;104179.66;2107821;28;19932;-54
2023/01/24 04:56:46;;;;;;;;;;;;;;;14.89;50.98;104179.66;2100905;28;20382;-52
2023/01/24 04:57:48;;;;;;;;;;;;;;;14.88;50.94;104175.31;2102232;28;19928;-53
2023/01/24 04:58:51;;;;;;;;;;;;;;;14.88;50.92;104178.03;2096825;28;19928;-53
2023/01/24 04:59:52;;;;;;;;;;;;;;;14.88;50.98;104172.59;2107736;28;19924;-55
2023/01/24 05:00:55;;;;;;;;;;;;;;;14.88;51.01;104173.44;2104090;28;19961;-53
2023/01/24 05:02:03;;;;;;;;;;;;;;;14.88;51.01;104172.59;2104292;28;19935;-54
2023/01/24 05:03:15;;;;;;;;;;;;;;;14.88;50.92;104178.03;2105173;28;19939;-54
2023/01/24 05:04:17;;;;;;;;;;;;;;;14.88;50.92;104173.44;2100607;28;20008;-54
2023/01/24 05:05:19;;;;;;;;;;;;;;;14.87;51.03;104171.00;2104170;28;20402;-54
2023/01/24 05:06:22;;;;;;;;;;;;;;;14.89;50.96;104176.94;2118713;28;20326;-54
2023/01/24 05:07:24;;;;;;;;;;;;;;;14.88;50.81;104172.59;2114488;28;19927;-53
2023/01/24 05:08:33;;;;;;;;;;;;;;;14.87;50.75;104174.50;2109239;28;19928;-52
2023/01/24 05:09:35;;;;;;;;;;;;;;;14.88;50.83;104173.44;2110461;28;19943;-54
2023/01/24 05:10:41;;;;;;;;;;;;;;;14.88;51.01;104172.59;2105069;28;19935;-54
2023/01/24 05:11:44;;;;;;;;;;;;;;;14.88;50.94;104172.59;2104706;28;19932;-53
2023/01/24 05:12:45;;;;;;;;;;;;;;;14.88;51.03;104167.16;2105105;28;20481;-53
2023/01/24 05:13:53;;;;;;;;;;;;;;;14.88;50.96;104169.88;2104749;28;20356;-54
2023/01/24 05:14:55;;;;;;;;;;;;;;;14.87;50.88;104173.72;2105389;28;19928;-54
2023/01/24 05:15:59;;;;;;;;;;;;;;;14.87;50.95;104166.34;2100733;28;19925;-55
2023/01/24 05:17:01;;;;;;;;;;;;;;;14.87;51.01;104173.72;2097453;28;20383;-53
2023/01/24 05:18:05;;;;;;;;;;;;;;;14.88;50.94;104175.31;2097777;28;19925;-54
2023/01/24 05:19:06;;;;;;;;;;;;;;;14.88;50.86;104172.59;2109550;28;19940;-56
2023/01/24 05:20:11;;;;;;;;;;;;;;;14.88;51.11;104175.31;2107702;28;19928;-54
2023/01/24 05:21:14;;;;;;;;;;;;;;;14.87;50.78;104165.56;2097746;28;20335;-54
2023/01/24 05:22:17;;;;;;;;;;;;;;;14.87;51.13;104171.78;2100987;28;19928;-53
2023/01/24 05:23:19;;;;;;;;;;;;;;;14.87;50.91;104169.06;2107215;28;19947;-53
2023/01/24 05:24:24;;;;;;;;;;;;;;;14.87;51.05;104165.56;2109317;28;19934;-52
2023/01/24 05:25:25;;;;;;;;;;;;;;;14.86;50.93;104163.91;2111449;28;20366;-54
2023/01/24 05:26:29;;;;;;;;;;;;;;;14.86;50.95;104170.19;2105978;28;19924;-55
2023/01/24 05:27:32;;;;;;;;;;;;;;;14.87;51.13;104171.00;2097575;28;20377;-55
2023/01/24 05:28:38;;;;;;;;;;;;;;;14.87;50.73;104171.00;2101916;28;20323;-54
2023/01/24 05:29:39;;;;;;;;;;;;;;;14.86;50.86;104174.78;2097926;28;19928;-55
2023/01/24 05:30:42;;;;;;;;;;;;;;;14.86;50.93;104170.19;2100946;28;19974;-55
2023/01/24 05:31:59;;;;;;;;;;;;;;;14.87;50.80;104176.44;2100683;28;19928;-54
2023/01/24 05:33:03;;;;;;;;;;;;;;;14.86;51.23;104167.47;2104702;28;19935;-53
2023/01/24 05:34:07;;;;;;;;;;;;;;;14.87;50.75;104168.28;2106424;28;19980;-54
2023/01/24 05:35:10;;;;;;;;;;;;;;;14.86;50.83;104170.19;2114312;27;20305;-55
2023/01/24 05:36:13;;;;;;;;;;;;;;;14.86;51.18;104161.19;2109900;28;19935;-55
2023/01/24 05:37:16;;;;;;;;;;;;;;;14.86;51.22;104161.19;2103458;28;19961;-55
2023/01/24 05:38:18;;;;;;;;;;;;;;;14.87;50.90;104160.13;2098346;28;19963;-52
2023/01/24 05:39:23;;;;;;;;;;;;;;;14.86;50.98;104169.34;2100648;28;19932;-53
2023/01/24 05:40:25;;;;;;;;;;;;;;;14.86;50.98;104158.47;2112698;28;19932;-54
2023/01/24 05:41:27;;;;;;;;;;;;;;;14.85;50.91;104168.56;2117572;27;19928;-54
2023/01/24 05:42:29;;;;;;;;;;;;;;;14.86;50.87;104169.34;2113129;28;20240;-54
2023/01/24 05:43:32;;;;;;;;;;;;;;;14.86;51.01;104172.06;2105190;28;19970;-55
2023/01/24 05:44:34;;;;;;;;;;;;;;;14.86;50.86;104170.19;2105170;28;19963;-53
2023/01/24 05:45:37;;;;;;;;;;;;;;;14.86;51.13;104169.34;2097933;28;19928;-53
2023/01/24 05:46:39;;;;;;;;;;;;;;;14.85;51.00;104168.56;2106199;28;19924;-54
2023/01/24 05:47:56;;;;;;;;;;;;;;;14.85;51.15;104174.00;2114107;27;19982;-53
2023/01/24 05:48:57;;;;;;;;;;;;;;;14.86;50.64;104177.50;2113529;28;19934;-53
2023/01/24 05:50:01;;;;;;;;;;;;;;;14.84;50.94;104171.56;2105452;28;19957;-53
2023/01/24 05:51:04;;;;;;;;;;;;;;;14.86;51.15;104174.78;2114446;28;19928;-55
2023/01/24 05:52:06;;;;;;;;;;;;;;;14.85;51.03;104163.13;2111185;28;20372;-54
2023/01/24 05:53:19;;;;;;;;;;;;;;;14.86;50.94;104166.63;2104152;28;19963;-55
2023/01/24 05:54:22;;;;;;;;;;;;;;;14.86;51.02;104174.78;2098233;28;19935;-55
2023/01/24 05:55:29;;;;;;;;;;;;;;;14.85;50.95;104175.91;2097806;28;20355;-54
2023/01/24 05:56:33;;;;;;;;;;;;;;;14.85;50.83;104173.19;2098454;28;19929;-54
2023/01/24 05:57:36;;;;;;;;;;;;;;;14.84;50.94;104171.56;2105048;28;20030;-52
2023/01/24 05:59:00;;;;;;;;;;;;;;;14.85;50.92;104170.47;2111975;28;20378;-55
2023/01/24 06:00:02;;;;;;;;;;;;;;;14.84;51.03;104174.28;2108578;28;19937;-55
2023/01/24 06:01:17;;;;;;;;;;;;;;;14.84;50.96;104177.81;2109190;27;20270;-54
2023/01/24 06:02:19;;;;;;;;;;;;;;;14.84;50.77;104177.81;2106361;28;19935;-53
2023/01/24 06:03:22;;;;;;;;;;;;;;;14.85;51.08;104173.19;2105427;28;19924;-55
2023/01/24 06:04:27;;;;;;;;;;;;;;;14.85;51.07;104184.88;2100226;28;19932;-55
2023/01/24 06:05:30;;;;;;;;;;;;;;;14.84;51.17;104185.97;2108102;28;19928;-54
2023/01/24 06:06:32;;;;;;;;;;;;;;;14.85;51.08;104184.06;2116392;27;19923;-54